createdAt,value
2023-01-20T00:02:03.659Z,100027.91
2023-01-20T00:04:35.412Z,100028.33
2023-01-20T00:07:07.155Z,100034.52
2023-01-20T00:09:39.252Z,100037.66
2023-01-20T00:12:11.090Z,100043.69
2023-01-20T00:14:42.916Z,100039.34
2023-01-20T00:17:14.642Z,100041.59
2023-01-20T00:19:46.448Z,100046.30
2023-01-20T00:22:18.217Z,100047.00
2023-01-20T00:24:49.923Z,100047.55
2023-01-20T00:27:21.705Z,100053.15
2023-01-20T00:29:53.554Z,100060.84
2023-01-20T00:32:25.460Z,100060.98
2023-01-20T00:34:57.457Z,100066.77
2023-01-20T00:37:29.304Z,100070.00
2023-01-20T00:40:01.170Z,100075.69
2023-01-20T00:42:33.086Z,100079.55
2023-01-20T00:45:05.212Z,100087.54
2023-01-20T00:47:36.976Z,100094.16
2023-01-20T00:50:10.172Z,100091.82
2023-01-20T00:52:42.058Z,100101.51
2023-01-20T00:55:14.712Z,100103.70
2023-01-20T00:57:46.710Z,100107.01
2023-01-20T01:00:20.088Z,100107.95
2023-01-20T01:02:54.816Z,100107.53
2023-01-20T01:05:26.958Z,100109.55
2023-01-20T01:07:58.762Z,100110.02
2023-01-20T01:10:30.623Z,100113.58
2023-01-20T01:13:05.313Z,100117.36
2023-01-20T01:15:37.424Z,100115.72
2023-01-20T01:18:09.262Z,100112.41
2023-01-20T01:20:41.724Z,100117.79
2023-01-20T01:23:13.759Z,100120.88
2023-01-20T01:25:45.476Z,100126.58
2023-01-20T01:28:17.694Z,100131.06
2023-01-20T01:30:49.499Z,100132.73
2023-01-20T01:33:21.393Z,100138.64
2023-01-20T01:35:59.152Z,100142.50
2023-01-20T01:38:31.641Z,100139.83
2023-01-20T01:41:03.768Z,100141.08
2023-01-20T01:43:37.867Z,100141.29
2023-01-20T01:46:09.807Z,100140.55
2023-01-20T01:48:43.518Z,100144.46
2023-01-20T01:51:18.804Z,100147.63
2023-01-20T01:53:54.302Z,100143.09
2023-01-20T01:56:26.949Z,100143.14
2023-01-20T01:59:01.040Z,100137.65
2023-01-20T02:01:33.400Z,100147.58
2023-01-20T02:04:07.113Z,100148.79
2023-01-20T02:06:42.127Z,100144.37
2023-01-20T02:09:14.293Z,100145.39
2023-01-20T02:11:49.468Z,100134.35
2023-01-20T02:14:23.165Z,100140.42
2023-01-20T02:17:00.497Z,100142.79
2023-01-20T02:20:02.446Z,100153.15
2023-01-20T02:22:41.303Z,100153.61
2023-01-20T02:25:36.914Z,100150.65
2023-01-20T02:28:38.723Z,100146.60
2023-01-20T02:31:22.659Z,100154.67
2023-01-20T02:33:57.780Z,100152.00
2023-01-20T02:36:33.701Z,100155.93
2023-01-20T02:39:09.574Z,100155.27
2023-01-20T02:41:46.946Z,100153.80
2023-01-20T02:44:24.321Z,100153.67
2023-01-20T02:47:00.167Z,100157.47
2023-01-20T02:49:35.615Z,100153.11
2023-01-20T02:52:11.092Z,100151.10
2023-01-20T02:54:46.134Z,100144.02
2023-01-20T02:57:23.148Z,100147.27
2023-01-20T02:59:57.205Z,100147.46
2023-01-20T03:02:30.731Z,100150.96
2023-01-20T03:05:07.528Z,100154.48
2023-01-20T03:07:41.532Z,100161.54
2023-01-20T03:10:17.443Z,100161.65
2023-01-20T03:12:54.246Z,100164.71
2023-01-20T03:15:29.604Z,100167.40
2023-01-20T03:18:01.397Z,100167.58
2023-01-20T03:20:33.304Z,100171.60
2023-01-20T03:23:05.025Z,100169.93
2023-01-20T03:25:38.209Z,100175.02
2023-01-20T03:28:10.083Z,100166.53
2023-01-20T03:30:41.971Z,100174.23
2023-01-20T03:33:14.850Z,100181.95
2023-01-20T03:35:47.021Z,100179.94
2023-01-20T03:38:18.953Z,100184.98
2023-01-20T03:40:54.622Z,100181.83
2023-01-20T03:43:32.405Z,100190.10
2023-01-20T03:46:06.446Z,100185.92
2023-01-20T03:48:43.215Z,100191.04
2023-01-20T03:51:18.665Z,100194.86
2023-01-20T03:53:53.922Z,100208.77
2023-01-20T03:56:29.593Z,100210.83
2023-01-20T03:59:03.437Z,100207.24
2023-01-20T04:01:37.521Z,100215.24
2023-01-20T04:04:12.779Z,100223.52
2023-01-20T04:06:45.357Z,100225.39
2023-01-20T04:09:34.484Z,100224.48
2023-01-20T04:12:08.100Z,100227.75
2023-01-20T04:14:40.034Z,100234.89
2023-01-20T04:17:12.279Z,100242.52
2023-01-20T04:19:44.322Z,100248.66
2023-01-20T04:22:20.420Z,100261.19
2023-01-20T04:24:54.304Z,100268.44
2023-01-20T04:27:26.065Z,100268.64
2023-01-20T04:29:58.040Z,100271.35
2023-01-20T04:32:29.828Z,100266.25
2023-01-20T04:35:01.637Z,100279.95
2023-01-20T04:37:33.702Z,100274.92
2023-01-20T04:40:05.738Z,100268.09
2023-01-20T04:42:37.711Z,100279.70
2023-01-20T04:45:11.253Z,100285.45
2023-01-20T04:47:43.222Z,100290.77
2023-01-20T04:50:16.615Z,100295.44
2023-01-20T04:52:48.486Z,100297.45
2023-01-20T04:55:20.328Z,100300.12
2023-01-20T04:57:52.126Z,100304.86
2023-01-20T05:00:24.464Z,100307.92
2023-01-20T05:02:59.560Z,100307.91
2023-01-20T05:05:31.413Z,100302.59
2023-01-20T05:08:04.834Z,100306.95
2023-01-20T05:10:36.893Z,100318.73
2023-01-20T05:13:08.658Z,100315.17
2023-01-20T05:15:41.969Z,100318.41
2023-01-20T05:18:13.955Z,100319.25
2023-01-20T05:20:47.334Z,100321.09
2023-01-20T05:23:19.462Z,100311.77
2023-01-20T05:25:53.931Z,100323.77
2023-01-20T05:28:25.979Z,100332.71
2023-01-20T05:30:57.858Z,100333.91
2023-01-20T05:33:29.747Z,100343.92
2023-01-20T05:36:01.557Z,100347.34
2023-01-20T05:38:33.357Z,100355.86
2023-01-20T05:41:06.255Z,100368.30
2023-01-20T05:43:38.553Z,100369.49
2023-01-20T05:46:10.498Z,100374.02
2023-01-20T05:48:42.394Z,100377.89
2023-01-20T05:51:14.163Z,100387.77
2023-01-20T05:53:45.992Z,100389.76
2023-01-20T05:56:17.916Z,100395.34
2023-01-20T05:58:50.819Z,100402.84
2023-01-20T06:01:23.237Z,100404.04
2023-01-20T06:03:55.053Z,100409.17
2023-01-20T06:06:27.580Z,100419.66
2023-01-20T06:08:59.330Z,100429.89
2023-01-20T06:11:31.186Z,100429.91
2023-01-20T06:14:03.071Z,100441.81
2023-01-20T06:16:34.857Z,100455.72
2023-01-20T06:19:06.628Z,100461.86
2023-01-20T06:21:38.333Z,100465.79
2023-01-20T06:24:10.413Z,100478.21
2023-01-20T06:26:42.158Z,100488.77
2023-01-20T06:29:14.004Z,100489.70
2023-01-20T06:31:45.856Z,100501.00
2023-01-20T06:34:17.742Z,100488.65
2023-01-20T06:36:49.458Z,100496.34
2023-01-20T06:39:21.433Z,100502.66
2023-01-20T06:41:53.199Z,100502.77
2023-01-20T06:44:25.075Z,100506.86
2023-01-20T06:46:58.270Z,100505.27
2023-01-20T06:49:30.245Z,100503.20
2023-01-20T06:52:02.004Z,100507.02
2023-01-20T06:54:33.783Z,100504.07
2023-01-20T06:57:05.550Z,100504.36
2023-01-20T06:59:37.447Z,100504.84
2023-01-20T07:02:10.211Z,100503.59
2023-01-20T07:04:42.687Z,100507.60
2023-01-20T07:07:15.341Z,100511.02
2023-01-20T07:09:48.146Z,100517.04
2023-01-20T07:12:19.856Z,100517.98
2023-01-20T07:14:51.524Z,100524.04
2023-01-20T07:17:23.471Z,100525.73
2023-01-20T07:19:55.290Z,100534.30
2023-01-20T07:22:26.960Z,100539.41
2023-01-20T07:24:58.648Z,100540.40
2023-01-20T07:27:30.443Z,100547.27
2023-01-20T07:30:02.167Z,100542.46
2023-01-20T07:32:34.216Z,100539.92
2023-01-20T07:35:06.901Z,100540.78
2023-01-20T07:37:38.699Z,100540.63
2023-01-20T07:40:13.259Z,100541.66
2023-01-20T07:42:44.991Z,100546.61
2023-01-20T07:45:17.444Z,100543.74
2023-01-20T07:47:49.198Z,100544.54
2023-01-20T07:50:20.910Z,100544.98
2023-01-20T07:52:52.696Z,100544.73
2023-01-20T07:55:25.237Z,100543.02
2023-01-20T07:57:57.379Z,100540.52
2023-01-20T08:00:29.621Z,100539.52
2023-01-20T08:03:01.401Z,100537.14
2023-01-20T08:05:34.700Z,100541.39
2023-01-20T08:08:06.612Z,100541.80
2023-01-20T08:10:38.397Z,100543.25
2023-01-20T08:13:10.064Z,100545.98
2023-01-20T08:15:41.822Z,100542.10
2023-01-20T08:18:13.575Z,100538.09
2023-01-20T08:20:45.328Z,100538.27
2023-01-20T08:23:17.155Z,100542.75
2023-01-20T08:25:49.014Z,100542.62
2023-01-20T08:28:21.024Z,100543.53
2023-01-20T08:30:52.935Z,100543.63
2023-01-20T08:33:24.731Z,100544.65
2023-01-20T08:35:59.239Z,100546.22
2023-01-20T08:38:30.958Z,100544.34
2023-01-20T08:41:02.761Z,100538.58
2023-01-20T08:43:34.545Z,100539.31
2023-01-20T08:46:08.495Z,100538.16
2023-01-20T08:48:43.078Z,100541.50
2023-01-20T08:51:17.044Z,100537.50
2023-01-20T08:53:48.927Z,100537.59
2023-01-20T08:56:21.253Z,100545.22
2023-01-20T08:58:54.104Z,100549.70
2023-01-20T09:01:27.705Z,100554.91
2023-01-20T09:04:05.768Z,100548.23
2023-01-20T09:06:46.663Z,100548.15
2023-01-20T09:09:20.171Z,100554.63
2023-01-20T09:11:51.993Z,100555.77
2023-01-20T09:14:25.274Z,100561.16
2023-01-20T09:16:57.018Z,100570.29
2023-01-20T09:19:28.744Z,100574.88
2023-01-20T09:22:00.408Z,100576.59
2023-01-20T09:24:32.196Z,100575.23
2023-01-20T09:27:03.919Z,100585.39
2023-01-20T09:29:36.861Z,100591.76
2023-01-20T09:32:08.655Z,100590.09
2023-01-20T09:34:40.397Z,100600.07
2023-01-20T09:37:29.810Z,100599.77
2023-01-20T09:40:19.154Z,100607.88
2023-01-20T09:43:18.991Z,100610.98
2023-01-20T09:45:56.210Z,100620.71
2023-01-20T09:48:50.330Z,100624.53
2023-01-20T09:51:45.804Z,100624.21
2023-01-20T09:54:20.663Z,100623.44
2023-01-20T09:56:50.788Z,100622.55
2023-01-20T09:59:26.206Z,100622.70
2023-01-20T10:02:01.219Z,100619.93
2023-01-20T10:04:37.462Z,100621.23
2023-01-20T10:07:12.740Z,100622.83
2023-01-20T10:09:50.533Z,100619.93
2023-01-20T10:12:26.515Z,100617.48
2023-01-20T10:15:06.837Z,100618.11
2023-01-20T10:17:41.146Z,100616.48
2023-01-20T10:20:17.031Z,100615.76
2023-01-20T10:22:54.251Z,100617.35
2023-01-20T10:25:29.351Z,100617.54
2023-01-20T10:28:08.052Z,100620.19
2023-01-20T10:30:40.526Z,100625.03
2023-01-20T10:33:13.867Z,100624.87
2023-01-20T10:35:47.787Z,100631.13
2023-01-20T10:38:22.681Z,100635.46
2023-01-20T10:40:55.239Z,100641.06
2023-01-20T10:43:26.934Z,100643.63
2023-01-20T10:46:07.973Z,100641.98
2023-01-20T10:48:55.049Z,100651.48
2023-01-20T10:51:31.282Z,100643.69
2023-01-20T10:54:10.752Z,100642.78
2023-01-20T10:56:45.567Z,100636.05
2023-01-20T10:59:16.809Z,100635.98
2023-01-20T11:02:02.542Z,100636.39
2023-01-20T11:04:42.359Z,100637.69
2023-01-20T11:07:18.312Z,100634.55
2023-01-20T11:09:51.308Z,100641.42
2023-01-20T11:12:26.177Z,100640.19
2023-01-20T11:14:58.480Z,100635.89
2023-01-20T11:17:30.262Z,100635.00
2023-01-20T11:20:08.006Z,100637.08
2023-01-20T11:22:40.270Z,100643.96
2023-01-20T11:25:27.320Z,100650.66
2023-01-20T11:27:58.385Z,100654.23
2023-01-20T11:30:32.918Z,100656.27
2023-01-20T11:33:21.678Z,100654.73
2023-01-20T11:36:04.722Z,100657.87
2023-01-20T11:38:44.572Z,100656.36
2023-01-20T11:41:23.892Z,100652.88
2023-01-20T11:43:57.092Z,100660.79
2023-01-20T11:46:34.066Z,100669.79
2023-01-20T11:49:22.011Z,100668.62
2023-01-20T11:51:55.601Z,100668.56
2023-01-20T11:54:29.360Z,100670.23
2023-01-20T11:57:04.836Z,100675.63
2023-01-20T11:59:39.140Z,100674.41
2023-01-20T12:02:25.300Z,100670.80
2023-01-20T12:05:13.880Z,100670.46
2023-01-20T12:07:49.095Z,100676.38
2023-01-20T12:10:23.868Z,100682.44
2023-01-20T12:12:58.749Z,100691.36
2023-01-20T12:15:32.762Z,100698.37
2023-01-20T12:18:09.570Z,100701.45
2023-01-20T12:20:54.619Z,100706.61
2023-01-20T12:23:45.884Z,100716.79
2023-01-20T12:26:19.162Z,100723.11
2023-01-20T12:28:57.388Z,100726.65
2023-01-20T12:31:29.278Z,100724.13
2023-01-20T12:34:02.538Z,100721.48
2023-01-20T12:37:13.312Z,100708.91
2023-01-20T12:39:52.844Z,100715.90
2023-01-20T12:43:06.520Z,100715.65
2023-01-20T12:45:57.290Z,100718.55
2023-01-20T12:48:35.278Z,100710.95
2023-01-20T12:51:15.954Z,100715.83
2023-01-20T12:54:01.482Z,100721.23
2023-01-20T12:56:40.108Z,100717.40
2023-01-20T12:59:21.023Z,100711.13
2023-01-20T13:02:06.597Z,100709.95
2023-01-20T13:04:58.618Z,100702.73
2023-01-20T13:07:52.730Z,100699.30
2023-01-20T13:10:34.553Z,100700.38
2023-01-20T13:13:19.402Z,100704.05
2023-01-20T13:15:57.578Z,100705.60
2023-01-20T13:18:35.478Z,100711.82
2023-01-20T13:21:07.510Z,100713.96
2023-01-20T13:23:39.613Z,100710.27
2023-01-20T13:26:14.218Z,100704.95
2023-01-20T13:28:55.472Z,100704.75
2023-01-20T13:31:46.244Z,100695.30
2023-01-20T13:34:38.947Z,100695.23
2023-01-20T13:37:36.870Z,100692.23
2023-01-20T13:40:50.620Z,100693.97
2023-01-20T13:43:41.067Z,100695.12
2023-01-20T13:46:49.292Z,100708.27
2023-01-20T13:49:48.022Z,100701.89
2023-01-20T13:52:57.162Z,100711.13
2023-01-20T13:55:32.847Z,100711.55
2023-01-20T13:58:04.587Z,100716.79
2023-01-20T14:00:37.572Z,100709.00
2023-01-20T14:03:18.882Z,100717.46
2023-01-20T14:05:53.301Z,100719.17
2023-01-20T14:08:26.391Z,100719.66
2023-01-20T14:11:12.751Z,100717.21
2023-01-20T14:13:53.283Z,100722.89
2023-01-20T14:16:27.855Z,100727.21
2023-01-20T14:19:01.925Z,100732.16
2023-01-20T14:21:41.931Z,100736.59
2023-01-20T14:24:29.337Z,100732.73
2023-01-20T14:27:15.473Z,100745.13
2023-01-20T14:29:48.032Z,100745.64
2023-01-20T14:32:22.586Z,100758.77
2023-01-20T14:34:52.969Z,100764.00
2023-01-20T14:37:28.661Z,100763.55
2023-01-20T14:40:02.996Z,100767.74
2023-01-20T14:42:34.797Z,100764.16
2023-01-20T14:45:21.073Z,100766.45
2023-01-20T14:47:53.370Z,100763.05
2023-01-20T14:50:25.169Z,100770.11
2023-01-20T14:52:56.982Z,100778.36
2023-01-20T14:55:34.282Z,100785.61
2023-01-20T14:58:10.317Z,100793.89
2023-01-20T15:00:46.615Z,100794.93
2023-01-20T15:03:21.215Z,100790.11
2023-01-20T15:05:59.259Z,100784.22
2023-01-20T15:09:04.438Z,100791.32
2023-01-20T15:11:37.919Z,100785.80
2023-01-20T15:14:12.300Z,100787.52
2023-01-20T15:16:53.716Z,100780.55
2023-01-20T15:19:43.072Z,100793.27
2023-01-20T15:22:22.925Z,100805.90
2023-01-20T15:24:54.929Z,100811.99
2023-01-20T15:27:29.445Z,100819.09
2023-01-20T15:30:21.405Z,100816.14
2023-01-20T15:32:55.140Z,100809.89
2023-01-20T15:35:27.201Z,100808.66
2023-01-20T15:37:59.039Z,100808.54
2023-01-20T15:40:31.052Z,100814.77
2023-01-20T15:43:02.927Z,100814.10
2023-01-20T15:45:34.912Z,100817.45
2023-01-20T15:48:12.627Z,100817.11
2023-01-20T15:50:44.633Z,100818.81
2023-01-20T15:53:16.778Z,100819.89
2023-01-20T15:55:53.140Z,100815.77
2023-01-20T15:58:27.635Z,100809.89
2023-01-20T16:01:00.654Z,100809.88
2023-01-20T16:03:35.528Z,100808.65
2023-01-20T16:06:14.360Z,100805.82
2023-01-20T16:08:48.006Z,100803.20
2023-01-20T16:11:20.818Z,100807.33
2023-01-20T16:13:52.778Z,100811.63
2023-01-20T16:16:26.825Z,100822.38
2023-01-20T16:19:00.604Z,100830.52
2023-01-20T16:21:32.307Z,100839.66
2023-01-20T16:24:04.045Z,100850.20
2023-01-20T16:26:36.891Z,100855.80
2023-01-20T16:29:09.733Z,100862.56
2023-01-20T16:31:41.508Z,100864.66
2023-01-20T16:34:13.188Z,100870.69
2023-01-20T16:36:44.853Z,100876.42
2023-01-20T16:39:16.713Z,100881.73
2023-01-20T16:41:50.774Z,100884.01
2023-01-20T16:44:22.534Z,100881.58
2023-01-20T16:46:54.441Z,100878.83
2023-01-20T16:49:26.178Z,100880.08
2023-01-20T16:51:57.879Z,100878.17
2023-01-20T16:54:29.701Z,100875.54
2023-01-20T16:57:01.413Z,100870.66
2023-01-20T16:59:33.488Z,100865.48
2023-01-20T17:02:05.278Z,100870.73
2023-01-20T17:04:37.789Z,100870.94
2023-01-20T17:07:09.884Z,100876.27
2023-01-20T17:09:41.777Z,100876.06
2023-01-20T17:12:14.057Z,100881.23
2023-01-20T17:14:45.804Z,100880.98
2023-01-20T17:17:17.594Z,100885.13
2023-01-20T17:19:49.657Z,100884.96
2023-01-20T17:22:21.451Z,100882.88
2023-01-20T17:24:53.301Z,100883.39
2023-01-20T17:27:25.024Z,100878.40
2023-01-20T17:29:56.960Z,100887.56
2023-01-20T17:32:28.718Z,100887.75
2023-01-20T17:35:00.519Z,100889.31
2023-01-20T17:37:32.578Z,100889.83
2023-01-20T17:40:04.599Z,100890.83
2023-01-20T17:42:36.331Z,100888.77
2023-01-20T17:45:09.520Z,100887.22
2023-01-20T17:47:41.187Z,100882.73
2023-01-20T17:50:13.916Z,100886.35
2023-01-20T17:52:45.746Z,100887.20
2023-01-20T17:55:17.993Z,100892.16
2023-01-20T17:57:52.248Z,100894.21
2023-01-20T18:00:25.308Z,100895.55
2023-01-20T18:02:58.901Z,100897.61
2023-01-20T18:05:30.976Z,100896.02
2023-01-20T18:08:02.775Z,100901.21
2023-01-20T18:10:34.450Z,100904.33
2023-01-20T18:13:06.163Z,100906.39
2023-01-20T18:15:42.686Z,100902.70
2023-01-20T18:18:14.479Z,100901.12
2023-01-20T18:20:46.148Z,100899.89
2023-01-20T18:23:17.911Z,100902.67
2023-01-20T18:25:49.656Z,100906.48
2023-01-20T18:28:21.353Z,100907.73
2023-01-20T18:30:53.475Z,100913.27
2023-01-20T18:33:26.575Z,100910.33
2023-01-20T18:35:58.892Z,100912.19
2023-01-20T18:38:30.603Z,100912.89
2023-01-20T18:41:03.192Z,100909.80
2023-01-20T18:43:35.390Z,100910.02
2023-01-20T18:46:07.724Z,100909.66
2023-01-20T18:48:41.299Z,100905.85
2023-01-20T18:51:14.989Z,100902.92
2023-01-20T18:53:48.681Z,100906.89
2023-01-20T18:56:20.351Z,100905.35
2023-01-20T18:58:52.888Z,100906.74
2023-01-20T19:01:26.310Z,100912.30
2023-01-20T19:03:59.269Z,100918.52
2023-01-20T19:06:34.253Z,100919.52
2023-01-20T19:09:06.871Z,100918.10
2023-01-20T19:11:41.854Z,100922.23
2023-01-20T19:14:16.179Z,100922.38
2023-01-20T19:16:49.379Z,100924.61
2023-01-20T19:19:21.652Z,100925.45
2023-01-20T19:21:59.651Z,100929.91
2023-01-20T19:24:31.538Z,100925.05
2023-01-20T19:27:03.800Z,100922.63
2023-01-20T19:29:35.570Z,100923.64
2023-01-20T19:32:07.627Z,100921.39
2023-01-20T19:34:43.969Z,100919.66
2023-01-20T19:37:15.683Z,100918.65
2023-01-20T19:39:48.218Z,100918.81
2023-01-20T19:42:25.707Z,100921.05
2023-01-20T19:44:57.662Z,100921.91
2023-01-20T19:47:31.522Z,100917.77
2023-01-20T19:50:03.446Z,100916.62
2023-01-20T19:52:35.155Z,100916.14
2023-01-20T19:55:07.318Z,100914.58
2023-01-20T19:57:39.043Z,100912.85
2023-01-20T20:00:13.733Z,100908.14
2023-01-20T20:02:45.855Z,100906.61
2023-01-20T20:05:19.227Z,100903.20
2023-01-20T20:07:51.219Z,100899.95
2023-01-20T20:10:22.976Z,100895.11
2023-01-20T20:12:54.671Z,100888.85
2023-01-20T20:15:26.833Z,100895.73
2023-01-20T20:17:58.584Z,100897.23
2023-01-20T20:20:32.348Z,100906.23
2023-01-20T20:23:05.527Z,100903.14
2023-01-20T20:25:38.503Z,100905.06
2023-01-20T20:28:11.173Z,100899.54
2023-01-20T20:30:43.284Z,100897.45
2023-01-20T20:33:19.309Z,100892.77
2023-01-20T20:35:51.129Z,100887.61
2023-01-20T20:38:27.168Z,100883.14
2023-01-20T20:41:02.835Z,100878.16
2023-01-20T20:43:34.951Z,100871.96
2023-01-20T20:46:08.786Z,100872.30
2023-01-20T20:48:40.860Z,100873.30
2023-01-20T20:51:14.573Z,100871.92
2023-01-20T20:53:46.965Z,100870.20
2023-01-20T20:56:19.488Z,100871.78
2023-01-20T20:59:00.896Z,100874.24
2023-01-20T21:01:35.386Z,100880.11
2023-01-20T21:04:07.640Z,100881.32
2023-01-20T21:06:39.601Z,100877.19
2023-01-20T21:09:12.352Z,100881.17
2023-01-20T21:11:45.862Z,100883.80
2023-01-20T21:14:20.668Z,100878.63
2023-01-20T21:16:52.733Z,100870.36
2023-01-20T21:19:24.972Z,100869.45
2023-01-20T21:21:58.178Z,100865.98
2023-01-20T21:24:30.116Z,100863.06
2023-01-20T21:27:02.585Z,100861.88
2023-01-20T21:29:34.344Z,100860.48
2023-01-20T21:32:06.342Z,100870.31
2023-01-20T21:34:38.238Z,100868.05
2023-01-20T21:37:12.260Z,100872.16
2023-01-20T21:39:46.547Z,100860.77
2023-01-20T21:42:18.547Z,100858.04
2023-01-20T21:44:50.252Z,100863.41
2023-01-20T21:47:22.527Z,100862.39
2023-01-20T21:50:12.707Z,100856.39
2023-01-20T21:52:45.413Z,100865.16
2023-01-20T21:55:19.235Z,100857.26
2023-01-20T21:57:51.928Z,100855.73
2023-01-20T22:00:24.215Z,100858.84
2023-01-20T22:02:55.985Z,100853.30
2023-01-20T22:05:27.789Z,100855.16
2023-01-20T22:07:59.855Z,100859.82
2023-01-20T22:10:32.633Z,100862.92
2023-01-20T22:13:07.540Z,100862.27
2023-01-20T22:15:40.444Z,100861.78
2023-01-20T22:18:12.116Z,100853.14
2023-01-20T22:20:43.972Z,100852.26
2023-01-20T22:23:15.679Z,100843.29
2023-01-20T22:25:47.450Z,100839.69
2023-01-20T22:28:19.290Z,100826.30
2023-01-20T22:30:50.962Z,100830.30
2023-01-20T22:33:22.684Z,100828.73
2023-01-20T22:35:56.541Z,100832.98
2023-01-20T22:38:28.505Z,100827.63
2023-01-20T22:41:05.213Z,100824.87
2023-01-20T22:43:38.789Z,100823.14
2023-01-20T22:46:11.127Z,100818.63
2023-01-20T22:48:43.325Z,100815.34
2023-01-20T22:51:17.033Z,100815.52
2023-01-20T22:53:49.088Z,100819.50
2023-01-20T22:56:22.657Z,100809.52
2023-01-20T22:58:54.426Z,100808.36
2023-01-20T23:01:27.550Z,100802.99
2023-01-20T23:04:00.143Z,100804.73
2023-01-20T23:06:33.698Z,100798.55
2023-01-20T23:09:07.356Z,100798.20
2023-01-20T23:11:40.236Z,100787.52
2023-01-20T23:14:13.500Z,100789.45
2023-01-20T23:16:45.606Z,100793.75
2023-01-20T23:19:18.586Z,100798.56
2023-01-20T23:21:50.319Z,100792.35
2023-01-20T23:24:22.235Z,100782.17
2023-01-20T23:26:54.029Z,100776.65
2023-01-20T23:29:25.826Z,100780.61
2023-01-20T23:31:58.102Z,100779.55
2023-01-20T23:34:29.889Z,100774.89
2023-01-20T23:37:01.706Z,100766.27
2023-01-20T23:39:33.404Z,100771.35
2023-01-20T23:42:05.312Z,100767.71
2023-01-20T23:44:37.061Z,100769.24
2023-01-20T23:47:10.342Z,100769.74
2023-01-20T23:49:42.087Z,100770.08
2023-01-20T23:52:13.903Z,100766.98
2023-01-20T23:54:45.597Z,100769.05
2023-01-20T23:57:17.341Z,100773.15
2023-01-20T23:59:49.194Z,100773.98
